createdAt,value
2023-10-12T00:02:22.461Z,4.78
2023-10-12T00:04:54.869Z,5.20
2023-10-12T00:07:34.780Z,5.30
2023-10-12T00:10:15.484Z,3.10
2023-10-12T00:12:49.337Z,5.65
2023-10-12T00:15:23.028Z,6.53
2023-10-12T00:17:54.030Z,4.13
2023-10-12T00:20:30.505Z,4.78
2023-10-12T00:23:11.535Z,3.95
2023-10-12T00:25:49.798Z,4.50
2023-10-12T00:28:20.967Z,5.00
2023-10-12T00:30:53.758Z,3.40
2023-10-12T00:33:23.812Z,5.57
2023-10-12T00:35:54.278Z,4.80
2023-10-12T00:38:25.433Z,4.75
2023-10-12T00:41:06.307Z,6.20
2023-10-12T00:43:50.500Z,6.72
2023-10-12T00:46:38.568Z,4.43
2023-10-12T00:49:18.128Z,6.63
2023-10-12T00:51:53.300Z,6.95
2023-10-12T00:54:28.474Z,4.60
2023-10-12T00:56:58.739Z,8.77
2023-10-12T00:59:28.466Z,4.07
2023-10-12T01:01:56.715Z,4.32
2023-10-12T01:04:24.313Z,5.20
2023-10-12T01:06:51.865Z,5.25
2023-10-12T01:09:22.439Z,9.02
2023-10-12T01:12:00.451Z,4.70
2023-10-12T01:14:31.120Z,4.70
2023-10-12T01:16:59.603Z,5.32
2023-10-12T01:19:32.382Z,4.65
2023-10-12T01:22:14.146Z,3.95
2023-10-12T01:24:54.052Z,6.22
2023-10-12T01:27:23.034Z,5.63
2023-10-12T01:29:51.826Z,8.50
2023-10-12T01:32:20.519Z,6.65
2023-10-12T01:34:53.751Z,4.22
2023-10-12T01:37:28.951Z,8.27
2023-10-12T01:40:04.218Z,5.87
2023-10-12T01:42:42.669Z,5.22
2023-10-12T01:45:19.791Z,6.55
2023-10-12T01:47:55.597Z,5.95
2023-10-12T01:50:29.489Z,10.23
2023-10-12T01:53:00.417Z,8.00
2023-10-12T01:55:31.905Z,5.22
2023-10-12T01:58:01.356Z,7.38
2023-10-12T02:00:39.603Z,6.28
2023-10-12T02:03:16.380Z,5.97
2023-10-12T02:05:49.170Z,5.40
2023-10-12T02:08:18.343Z,5.18
2023-10-12T02:10:57.185Z,8.85
2023-10-12T02:13:25.242Z,4.93
2023-10-12T02:15:53.360Z,8.32
2023-10-12T02:18:21.139Z,6.85
2023-10-12T02:21:08.115Z,5.28
2023-10-12T02:23:40.922Z,4.32
2023-10-12T02:26:13.296Z,5.60
2023-10-12T02:28:41.524Z,6.53
2023-10-12T02:31:13.983Z,4.78
2023-10-12T02:33:44.008Z,4.75
2023-10-12T02:36:11.458Z,7.25
2023-10-12T02:38:38.904Z,4.55
2023-10-12T02:41:13.893Z,6.00
2023-10-12T02:46:23.888Z,5.32
2023-10-12T02:48:52.380Z,3.90
2023-10-12T02:51:20.004Z,7.93
2023-10-12T02:53:49.000Z,5.78
2023-10-12T02:56:20.453Z,5.57
2023-10-12T02:58:47.955Z,4.97
2023-10-12T03:01:21.085Z,13.40
2023-10-12T03:03:53.950Z,5.28
2023-10-12T03:06:33.697Z,4.97
2023-10-12T03:09:01.199Z,6.22
2023-10-12T03:11:33.285Z,6.65
2023-10-12T03:14:14.654Z,5.15
2023-10-12T03:16:44.500Z,4.95
2023-10-12T03:19:24.954Z,7.88
2023-10-12T03:21:53.081Z,5.53
2023-10-12T03:24:39.646Z,7.05
2023-10-12T03:27:12.652Z,5.82
2023-10-12T03:29:44.907Z,8.23
2023-10-12T03:32:12.808Z,5.90
2023-10-12T03:34:46.000Z,9.85
2023-10-12T03:37:16.202Z,7.03
2023-10-12T03:39:49.632Z,5.05
2023-10-12T03:42:43.908Z,5.80
2023-10-12T03:45:35.329Z,9.88
2023-10-12T03:48:16.501Z,6.57
2023-10-12T03:51:13.161Z,11.25
2023-10-12T03:53:47.279Z,5.18
2023-10-12T03:56:17.330Z,12.38
2023-10-12T03:58:48.833Z,6.90
2023-10-12T04:01:22.132Z,9.90
2023-10-12T04:03:59.779Z,9.82
2023-10-12T04:06:47.957Z,7.38
2023-10-12T04:50:53.812Z,5.95
2023-10-12T04:53:36.264Z,5.05
2023-10-12T04:56:11.696Z,4.85
2023-10-12T04:58:44.083Z,11.20
2023-10-12T05:01:21.470Z,5.88
2023-10-12T05:04:10.687Z,8.20
2023-10-12T05:06:48.625Z,8.68
2023-10-12T05:09:19.656Z,4.80
2023-10-12T05:11:48.038Z,9.90
2023-10-12T05:14:16.503Z,8.35
2023-10-12T05:16:44.358Z,9.95
2023-10-12T05:19:12.729Z,5.88
2023-10-12T05:21:40.725Z,6.60
2023-10-12T05:24:10.074Z,9.38
2023-10-12T05:26:38.589Z,17.77
2023-10-12T05:29:35.376Z,6.45
2023-10-12T05:32:18.169Z,9.25
2023-10-12T05:34:47.589Z,7.70
2023-10-12T05:37:17.984Z,6.88
2023-10-12T05:39:48.612Z,6.57
2023-10-12T05:42:16.327Z,7.57
2023-10-12T05:44:44.531Z,11.05
2023-10-12T05:47:15.158Z,10.00
2023-10-12T05:49:42.952Z,14.02
2023-10-12T05:52:11.744Z,8.25
2023-10-12T05:54:42.394Z,12.20
2023-10-12T05:57:26.278Z,7.88
2023-10-12T05:59:53.793Z,11.45
2023-10-12T06:02:23.927Z,15.30
2023-10-12T06:04:51.702Z,9.65
2023-10-12T06:07:19.281Z,8.95
2023-10-12T06:09:46.819Z,9.40
2023-10-12T06:12:19.750Z,10.02
2023-10-12T06:14:54.715Z,10.20
2023-10-12T06:17:40.945Z,8.50
2023-10-12T06:22:44.192Z,6.80
2023-10-12T06:25:13.146Z,8.95
2023-10-12T06:27:40.750Z,6.97
2023-10-12T06:30:18.927Z,12.57
2023-10-12T06:32:50.066Z,12.90
2023-10-12T06:35:20.932Z,10.13
2023-10-12T06:38:01.371Z,10.18
2023-10-12T06:40:31.640Z,11.75
2023-10-12T06:43:13.025Z,6.38
2023-10-12T06:45:53.748Z,7.57
2023-10-12T06:48:31.236Z,15.95
2023-10-12T06:51:04.986Z,8.05
2023-10-12T06:53:37.774Z,7.60
2023-10-12T06:56:16.292Z,8.95
2023-10-12T06:59:08.358Z,9.35
2023-10-12T07:01:52.870Z,10.07
2023-10-12T07:04:31.845Z,12.48
2023-10-12T07:07:02.630Z,8.90
2023-10-12T07:09:41.857Z,9.85
2023-10-12T07:12:16.231Z,9.15
2023-10-12T07:14:54.772Z,10.48
2023-10-12T07:17:32.962Z,9.82
2023-10-12T07:20:00.837Z,9.35
2023-10-12T07:22:28.410Z,10.65
2023-10-12T07:24:58.422Z,8.63
2023-10-12T07:27:26.254Z,9.02
2023-10-12T07:30:11.921Z,10.10
2023-10-12T07:32:46.117Z,9.88
2023-10-12T07:35:19.458Z,10.48
2023-10-12T07:37:48.384Z,10.02
2023-10-12T07:40:19.409Z,9.30
2023-10-12T07:42:48.434Z,9.02
2023-10-12T07:45:18.312Z,10.55
2023-10-12T07:48:00.951Z,12.63
2023-10-12T07:50:31.782Z,17.27
2023-10-12T07:53:28.667Z,7.25
2023-10-12T07:56:02.031Z,8.82
2023-10-12T07:58:33.034Z,8.85
2023-10-12T08:01:20.622Z,14.00
2023-10-12T08:04:00.107Z,8.63
2023-10-12T08:06:31.056Z,12.55
2023-10-12T08:09:07.809Z,8.88
2023-10-12T08:11:36.478Z,9.43
2023-10-12T08:14:23.154Z,14.98
2023-10-12T08:17:10.746Z,9.73
2023-10-12T08:19:43.259Z,10.93
2023-10-12T08:22:31.323Z,12.68
2023-10-12T08:25:00.868Z,11.05
2023-10-12T08:27:29.107Z,15.30
2023-10-12T08:29:58.556Z,9.70
2023-10-12T08:32:26.110Z,9.20
2023-10-12T08:34:59.513Z,12.88
2023-10-12T08:37:27.806Z,9.80
2023-10-12T08:39:58.788Z,8.95
2023-10-12T08:42:33.646Z,9.50
2023-10-12T08:45:09.510Z,15.18
2023-10-12T08:47:41.576Z,10.73
2023-10-12T08:50:16.038Z,12.55
2023-10-12T08:52:51.873Z,9.73
2023-10-12T08:55:26.753Z,13.25
2023-10-12T08:58:13.396Z,18.27
2023-10-12T09:01:02.879Z,9.50
2023-10-12T09:03:38.731Z,9.82
2023-10-12T09:06:26.333Z,9.15
2023-10-12T09:08:53.742Z,8.27
2023-10-12T09:11:27.275Z,11.77
2023-10-12T09:13:58.739Z,8.23
2023-10-12T09:16:27.923Z,11.23
2023-10-12T09:18:58.897Z,7.45
2023-10-12T09:21:40.214Z,11.35
2023-10-12T09:24:08.272Z,11.32
2023-10-12T09:26:38.492Z,9.18
2023-10-12T09:29:07.462Z,12.88
2023-10-12T09:31:37.312Z,9.82
2023-10-12T09:34:10.624Z,9.65
2023-10-12T09:36:46.485Z,8.60
2023-10-12T09:39:16.038Z,8.15
2023-10-12T09:42:07.304Z,13.20
2023-10-12T09:44:40.742Z,10.52
2023-10-12T09:47:25.108Z,14.07
2023-10-12T09:49:59.593Z,8.77
2023-10-12T09:52:47.626Z,8.52
2023-10-12T09:55:26.752Z,12.05
2023-10-12T09:57:55.362Z,11.90
2023-10-12T10:00:29.872Z,9.20
2023-10-12T10:03:00.995Z,7.60
2023-10-12T10:06:02.477Z,11.75
2023-10-12T10:08:32.213Z,9.38
2023-10-12T10:11:00.026Z,9.82
2023-10-12T10:13:48.609Z,11.48
2023-10-12T10:16:19.156Z,11.80
2023-10-12T10:18:50.531Z,10.00
2023-10-12T10:21:20.637Z,10.00
2023-10-12T10:23:53.607Z,9.18
2023-10-12T10:26:35.362Z,12.07
2023-10-12T10:29:06.494Z,10.50
2023-10-12T10:31:42.547Z,11.55
2023-10-12T10:34:14.990Z,10.40
2023-10-12T10:36:46.084Z,13.38
2023-10-12T10:39:16.672Z,12.23
2023-10-12T10:41:44.187Z,12.07
2023-10-12T10:44:18.355Z,12.70
2023-10-12T10:46:55.766Z,12.95
2023-10-12T10:49:33.693Z,9.65
2023-10-12T10:52:15.429Z,12.27
2023-10-12T10:54:58.179Z,13.73
2023-10-12T10:57:39.212Z,11.57
2023-10-12T11:00:18.902Z,15.57
2023-10-12T11:02:48.973Z,10.10
2023-10-12T11:05:20.768Z,17.08
2023-10-12T11:07:54.682Z,12.60
2023-10-12T11:10:32.846Z,13.95
2023-10-12T11:13:06.605Z,14.55
2023-10-12T11:15:34.389Z,9.48
2023-10-12T11:18:08.785Z,10.13
2023-10-12T11:20:50.989Z,13.25
2023-10-12T11:23:19.567Z,12.02
2023-10-12T11:25:47.241Z,12.10
2023-10-12T11:28:27.662Z,11.90
2023-10-12T11:31:04.477Z,21.02
2023-10-12T11:33:32.519Z,17.77
2023-10-12T11:36:05.188Z,15.10
2023-10-12T11:38:33.777Z,14.88
2023-10-12T11:41:14.001Z,15.27
2023-10-12T11:43:55.834Z,9.57
2023-10-12T11:46:27.207Z,11.85
2023-10-12T11:49:06.006Z,13.45
2023-10-12T11:51:41.224Z,12.45
2023-10-12T11:54:21.917Z,15.57
2023-10-12T11:56:51.086Z,10.05
2023-10-12T11:59:28.517Z,15.98
2023-10-12T12:01:59.129Z,16.00
2023-10-12T12:04:46.853Z,16.00
2023-10-12T12:07:22.265Z,9.35
2023-10-12T12:09:53.951Z,12.68
2023-10-12T12:12:21.792Z,11.70
2023-10-12T12:14:52.960Z,14.40
2023-10-12T12:17:20.829Z,12.48
2023-10-12T12:19:48.441Z,14.73
2023-10-12T12:22:16.127Z,12.98
2023-10-12T12:24:46.219Z,9.73
2023-10-12T12:27:34.011Z,10.05
2023-10-12T12:30:29.202Z,10.70
2023-10-12T12:32:53.125Z,14.20
2023-10-12T12:35:22.874Z,14.60
2023-10-12T12:37:51.586Z,15.02
2023-10-12T12:40:32.063Z,11.07
2023-10-12T12:43:00.701Z,10.27
2023-10-12T12:45:28.340Z,12.02
2023-10-12T12:47:57.047Z,12.93
2023-10-12T12:50:24.782Z,12.95
2023-10-12T12:52:52.494Z,14.65
2023-10-12T12:55:22.352Z,11.95
2023-10-12T12:57:50.439Z,11.23
2023-10-12T13:00:22.680Z,10.88
2023-10-12T13:02:50.592Z,12.80
2023-10-12T13:05:18.236Z,10.75
2023-10-12T13:07:47.461Z,11.30
2023-10-12T13:10:15.356Z,16.08
2023-10-12T13:12:45.845Z,12.40
2023-10-12T13:15:16.157Z,11.52
2023-10-12T13:17:43.891Z,15.85
2023-10-12T13:20:30.393Z,11.50
2023-10-12T13:22:58.349Z,11.30
2023-10-12T13:25:27.560Z,14.10
2023-10-12T13:27:55.949Z,10.77
2023-10-12T13:30:24.187Z,10.82
2023-10-12T13:32:56.569Z,11.68
2023-10-12T13:35:32.782Z,9.70
2023-10-12T13:38:04.242Z,11.00
2023-10-12T13:40:32.551Z,9.93
2023-10-12T13:43:08.244Z,12.75
2023-10-12T13:45:35.963Z,9.57
2023-10-12T13:48:04.355Z,8.88
2023-10-12T13:50:32.005Z,10.50
2023-10-12T13:53:01.527Z,10.93
2023-10-12T13:55:30.211Z,7.35
2023-10-12T13:57:58.965Z,11.65
2023-10-12T14:00:26.971Z,10.50
2023-10-12T14:02:58.042Z,7.68
2023-10-12T14:05:28.604Z,10.20
2023-10-12T14:07:59.513Z,8.20
2023-10-12T14:10:28.170Z,8.00
2023-10-12T14:12:55.722Z,7.07
2023-10-12T14:15:30.522Z,8.73
2023-10-12T14:18:00.017Z,7.10
2023-10-12T14:20:30.742Z,6.43
2023-10-12T14:22:59.066Z,6.78
2023-10-12T14:25:30.161Z,9.02
2023-10-12T14:28:01.751Z,12.18
2023-10-12T14:30:29.664Z,8.63
2023-10-12T14:32:59.419Z,6.10
2023-10-12T14:35:27.115Z,5.45
2023-10-12T14:37:56.483Z,10.15
2023-10-12T14:40:34.067Z,5.68
2023-10-12T14:43:07.135Z,6.78
2023-10-12T14:45:37.983Z,7.65
2023-10-12T14:48:12.780Z,13.85
2023-10-12T14:50:47.204Z,7.15
2023-10-12T14:53:22.306Z,7.03
2023-10-12T14:55:50.585Z,8.55
2023-10-12T14:58:22.208Z,7.90
2023-10-12T15:00:52.189Z,6.10
2023-10-12T15:03:27.815Z,7.57
2023-10-12T15:08:26.689Z,8.63
2023-10-12T15:10:58.431Z,7.88
2023-10-12T15:13:27.426Z,6.03
2023-10-12T15:15:55.663Z,6.32
2023-10-12T15:18:28.594Z,9.20
2023-10-12T15:21:05.558Z,5.97
2023-10-12T15:23:41.498Z,6.47
2023-10-12T15:26:13.079Z,8.57
2023-10-12T15:28:40.718Z,4.63
2023-10-12T15:31:12.905Z,16.20
2023-10-12T15:33:40.645Z,6.95
2023-10-12T15:36:18.374Z,8.23
2023-10-12T15:38:48.448Z,7.05
2023-10-12T15:41:18.145Z,6.55
2023-10-12T15:43:45.672Z,7.07
2023-10-12T15:46:17.772Z,8.90
2023-10-12T15:48:45.928Z,7.13
2023-10-12T15:51:24.021Z,7.00
2023-10-12T15:53:54.760Z,7.47
2023-10-12T15:56:26.499Z,7.25
2023-10-12T15:58:54.187Z,9.82
2023-10-12T16:01:21.946Z,4.22
2023-10-12T16:03:49.783Z,5.18
2023-10-12T16:06:18.648Z,4.15
2023-10-12T16:08:48.931Z,6.53
2023-10-12T16:11:18.041Z,4.15
2023-10-12T16:13:47.390Z,3.88
2023-10-12T16:16:15.741Z,4.40
2023-10-12T16:18:44.312Z,4.53
2023-10-12T16:21:14.314Z,3.83
2023-10-12T16:23:42.236Z,7.10
2023-10-12T16:26:10.845Z,6.65
2023-10-12T16:28:42.480Z,3.35
2023-10-12T16:31:11.346Z,4.07
2023-10-12T16:33:40.495Z,3.83
2023-10-12T16:36:10.130Z,2.15
2023-10-12T16:38:38.477Z,3.00
2023-10-12T16:41:09.226Z,2.92
2023-10-12T16:43:39.742Z,3.08
2023-10-12T16:46:27.930Z,4.50
2023-10-12T16:48:56.116Z,3.20
2023-10-12T16:51:32.689Z,4.95
2023-10-12T16:54:05.170Z,4.18
2023-10-12T16:56:34.253Z,1.80
2023-10-12T16:59:11.086Z,2.67
2023-10-12T17:01:41.736Z,2.85
2023-10-12T17:04:33.081Z,5.20
2023-10-12T17:07:03.323Z,2.85
2023-10-12T17:09:30.872Z,4.55
2023-10-12T17:11:58.437Z,3.38
2023-10-12T17:14:30.086Z,3.13
2023-10-12T17:16:59.510Z,4.38
2023-10-12T17:19:27.224Z,3.33
2023-10-12T17:21:55.572Z,2.53
2023-10-12T17:24:23.218Z,4.05
2023-10-12T17:26:52.906Z,3.22
2023-10-12T17:29:23.666Z,3.47
2023-10-12T17:31:51.822Z,5.25
2023-10-12T17:34:19.488Z,5.40
2023-10-12T17:36:47.508Z,2.67
2023-10-12T17:39:29.024Z,5.55
2023-10-12T17:41:59.614Z,2.47
2023-10-12T17:44:28.576Z,2.28
2023-10-12T17:46:58.870Z,1.70
2023-10-12T17:49:26.564Z,1.92
2023-10-12T17:51:54.349Z,2.88
2023-10-12T17:54:22.248Z,5.18
2023-10-12T17:56:53.357Z,2.15
2023-10-12T17:59:23.802Z,3.65
2023-10-12T18:01:52.191Z,1.63
2023-10-12T18:04:26.515Z,2.03
2023-10-12T18:06:56.915Z,3.22
2023-10-12T18:09:35.575Z,2.65
2023-10-12T18:12:06.410Z,4.10
2023-10-12T18:14:34.366Z,1.80
2023-10-12T18:17:02.084Z,3.45
2023-10-12T18:19:30.812Z,3.58
2023-10-12T18:21:58.713Z,2.30
2023-10-12T18:24:26.404Z,1.45
2023-10-12T18:26:57.193Z,2.33
2023-10-12T18:29:24.830Z,2.40
2023-10-12T18:31:52.657Z,4.65
2023-10-12T18:34:20.469Z,10.20
2023-10-12T18:36:58.145Z,3.55
2023-10-12T18:39:33.772Z,2.22
2023-10-12T18:42:01.429Z,2.08
2023-10-12T18:44:29.168Z,4.32
2023-10-12T18:46:59.663Z,2.78
2023-10-12T18:49:27.321Z,1.63
2023-10-12T18:51:54.999Z,3.58
2023-10-12T18:54:24.628Z,2.90
2023-10-12T18:56:57.649Z,5.38
2023-10-12T18:59:26.097Z,1.92
2023-10-12T19:01:54.571Z,2.58
2023-10-12T19:04:27.172Z,3.58
2023-10-12T19:06:56.618Z,3.28
2023-10-12T19:09:24.305Z,1.35
2023-10-12T19:11:54.960Z,5.45
2023-10-12T19:14:22.734Z,3.53
2023-10-12T19:16:53.305Z,3.35
2023-10-12T19:19:22.947Z,2.15
2023-10-12T19:21:50.688Z,1.95
2023-10-12T19:24:19.069Z,9.45
2023-10-12T19:26:46.646Z,6.03
2023-10-12T19:29:14.223Z,2.78
2023-10-12T19:31:42.048Z,3.92
2023-10-12T19:34:10.557Z,4.00
2023-10-12T19:36:39.770Z,2.45
2023-10-12T19:39:09.278Z,2.47
2023-10-12T19:41:37.053Z,2.40
2023-10-12T19:44:07.429Z,2.60
2023-10-12T19:46:35.029Z,4.75
2023-10-12T19:49:02.538Z,1.48
2023-10-12T19:51:32.952Z,4.38
2023-10-12T19:54:00.547Z,4.03
2023-10-12T19:56:27.974Z,6.18
2023-10-12T19:58:59.468Z,5.72
2023-10-12T20:01:27.127Z,5.45
2023-10-12T20:03:56.802Z,3.78
2023-10-12T20:06:26.265Z,5.80
2023-10-12T20:08:54.697Z,7.93
2023-10-12T20:11:22.163Z,7.03
2023-10-12T20:13:50.245Z,6.75
2023-10-12T20:16:24.686Z,3.58
2023-10-12T20:18:52.522Z,3.67
2023-10-12T20:21:21.197Z,6.95
2023-10-12T20:23:50.101Z,2.03
2023-10-12T20:26:24.371Z,7.38
2023-10-12T20:28:52.239Z,3.60
2023-10-12T20:31:19.906Z,2.58
2023-10-12T20:33:49.125Z,3.00
2023-10-12T20:36:16.668Z,6.18
2023-10-12T20:38:46.916Z,6.05
2023-10-12T20:41:14.473Z,4.43
2023-10-12T20:43:42.145Z,3.90
2023-10-12T20:46:10.248Z,4.22
2023-10-12T20:48:38.876Z,2.90
2023-10-12T20:51:07.017Z,2.70
2023-10-12T20:53:35.577Z,2.65
2023-10-12T20:56:09.517Z,5.72
2023-10-12T20:58:44.300Z,4.50
2023-10-12T21:01:21.550Z,2.65
2023-10-12T21:03:55.434Z,2.63
2023-10-12T21:06:32.418Z,3.47
2023-10-12T21:09:13.602Z,2.92
2023-10-12T21:11:46.784Z,4.57
2023-10-12T21:14:35.933Z,3.45
2023-10-12T21:17:06.748Z,5.72
2023-10-12T21:19:55.299Z,6.88
2023-10-12T21:22:29.050Z,2.33
2023-10-12T21:24:57.589Z,3.40
2023-10-12T21:27:37.331Z,3.25
2023-10-12T21:30:06.739Z,5.30
2023-10-12T21:32:34.426Z,1.77
2023-10-12T21:35:02.116Z,5.43
2023-10-12T21:37:34.452Z,2.72
2023-10-12T21:40:21.602Z,3.97
2023-10-12T21:42:49.244Z,2.65
2023-10-12T21:45:41.474Z,1.92
2023-10-12T21:48:14.433Z,5.45
2023-10-12T21:50:43.496Z,4.28
2023-10-12T21:53:10.930Z,2.10
2023-10-12T21:55:40.066Z,2.92
2023-10-12T21:58:07.665Z,3.65
2023-10-12T22:00:38.304Z,3.15
2023-10-12T22:03:08.980Z,3.53
2023-10-12T22:05:36.631Z,2.53
2023-10-12T22:08:04.404Z,2.17
2023-10-12T22:10:32.869Z,2.08
2023-10-12T22:13:07.239Z,6.43
2023-10-12T22:15:54.820Z,4.03
2023-10-12T22:18:23.396Z,2.17
2023-10-12T22:20:57.333Z,2.65
2023-10-12T22:23:24.948Z,3.95
2023-10-12T22:25:52.586Z,2.88
2023-10-12T22:28:20.144Z,5.35
2023-10-12T22:30:51.912Z,5.85
2023-10-12T22:33:19.856Z,3.90
2023-10-12T22:36:00.419Z,4.78
2023-10-12T22:38:29.717Z,5.60
2023-10-12T22:41:05.909Z,2.53
2023-10-12T22:43:33.757Z,9.27
2023-10-12T22:46:02.389Z,3.33
2023-10-12T22:48:29.997Z,4.20
2023-10-12T22:50:57.488Z,6.43
2023-10-12T22:53:24.952Z,6.05
2023-10-12T22:55:52.410Z,2.58
2023-10-12T22:58:22.158Z,3.38
2023-10-12T23:00:51.123Z,3.92
2023-10-12T23:03:19.018Z,6.50
2023-10-12T23:05:46.573Z,3.45
2023-10-12T23:08:16.384Z,5.85
2023-10-12T23:10:47.817Z,4.20
2023-10-12T23:13:16.171Z,3.33
2023-10-12T23:15:46.760Z,5.47
2023-10-12T23:18:14.303Z,2.78
2023-10-12T23:20:45.957Z,2.03
2023-10-12T23:23:16.017Z,5.05
2023-10-12T23:25:45.255Z,5.97
2023-10-12T23:28:20.505Z,2.65
2023-10-12T23:30:53.598Z,5.45
2023-10-12T23:33:35.236Z,5.95
2023-10-12T23:36:02.714Z,4.22
2023-10-12T23:38:48.427Z,5.68
2023-10-12T23:41:15.942Z,4.85
2023-10-12T23:43:54.391Z,5.15
2023-10-12T23:46:26.491Z,4.57
2023-10-12T23:49:00.569Z,2.60
2023-10-12T23:51:33.376Z,9.13
2023-10-12T23:54:07.634Z,8.30
2023-10-12T23:56:41.466Z,8.50
2023-10-12T23:59:09.362Z,4.85
